createdAt,value
2023-04-19T00:01:47.651Z,1.05
2023-04-19T00:04:15.403Z,1.27
2023-04-19T00:06:42.320Z,0.98
2023-04-19T00:09:09.175Z,1.00
2023-04-19T00:11:35.566Z,1.00
2023-04-19T00:14:01.957Z,0.93
2023-04-19T00:16:28.505Z,0.98
2023-04-19T00:18:54.906Z,0.73
2023-04-19T00:21:21.349Z,1.00
2023-04-19T00:23:47.930Z,0.77
2023-04-19T00:26:15.861Z,0.85
2023-04-19T00:28:42.532Z,0.75
2023-04-19T00:31:09.038Z,1.15
2023-04-19T00:33:35.622Z,0.80
2023-04-19T00:36:02.340Z,0.77
2023-04-19T00:38:28.746Z,1.02
2023-04-19T00:40:55.603Z,0.98
2023-04-19T00:43:21.997Z,0.70
2023-04-19T00:45:49.514Z,0.65
2023-04-19T00:48:16.072Z,0.80
2023-04-19T00:50:43.867Z,1.00
2023-04-19T00:53:10.752Z,0.85
2023-04-19T00:55:39.092Z,0.88
2023-04-19T00:58:06.149Z,1.10
2023-04-19T01:00:32.664Z,0.67
2023-04-19T01:02:59.170Z,1.00
2023-04-19T01:05:25.716Z,0.68
2023-04-19T01:07:52.235Z,0.70
2023-04-19T01:10:18.727Z,0.77
2023-04-19T01:12:45.119Z,0.70
2023-04-19T01:15:11.571Z,0.68
2023-04-19T01:17:38.045Z,0.90
2023-04-19T01:20:08.273Z,0.70
2023-04-19T01:22:35.215Z,0.50
2023-04-19T01:25:01.722Z,0.60
2023-04-19T01:27:28.174Z,0.95
2023-04-19T01:29:54.581Z,0.65
2023-04-19T01:32:21.165Z,0.65
2023-04-19T01:34:48.092Z,0.57
2023-04-19T01:37:14.466Z,0.67
2023-04-19T01:39:41.102Z,0.45
2023-04-19T01:42:07.500Z,0.68
2023-04-19T01:44:33.911Z,0.47
2023-04-19T01:47:00.565Z,0.70
2023-04-19T01:49:27.114Z,0.67
2023-04-19T01:51:53.536Z,0.55
2023-04-19T01:54:19.952Z,0.75
2023-04-19T01:56:46.410Z,0.77
2023-04-19T01:59:12.850Z,0.57
2023-04-19T02:01:39.307Z,0.57
2023-04-19T02:04:07.737Z,0.68
2023-04-19T02:06:34.140Z,0.80
2023-04-19T02:09:00.605Z,0.45
2023-04-19T02:11:27.109Z,0.65
2023-04-19T02:13:53.562Z,0.50
2023-04-19T02:16:19.963Z,0.77
2023-04-19T02:18:46.917Z,0.60
2023-04-19T02:21:13.580Z,0.47
2023-04-19T02:23:40.097Z,0.50
2023-04-19T02:26:06.531Z,0.40
2023-04-19T02:28:33.133Z,0.30
2023-04-19T02:30:59.658Z,0.60
2023-04-19T02:33:26.928Z,0.50
2023-04-19T02:35:53.339Z,0.57
2023-04-19T02:38:19.786Z,0.40
2023-04-19T02:40:46.209Z,0.45
2023-04-19T02:43:12.603Z,0.63
2023-04-19T02:45:39.029Z,0.43
2023-04-19T02:48:05.893Z,0.50
2023-04-19T02:50:32.527Z,0.40
2023-04-19T02:52:58.950Z,0.45
2023-04-19T02:55:25.352Z,0.47
2023-04-19T02:57:52.119Z,0.55
2023-04-19T03:00:18.566Z,0.50
2023-04-19T03:02:45.107Z,0.60
2023-04-19T03:05:11.821Z,0.68
2023-04-19T03:07:38.263Z,0.52
2023-04-19T03:10:04.916Z,0.50
2023-04-19T03:12:31.305Z,0.70
2023-04-19T03:14:57.790Z,0.40
2023-04-19T03:17:24.287Z,0.68
2023-04-19T03:19:50.673Z,0.57
2023-04-19T03:22:17.067Z,0.50
2023-04-19T03:24:43.521Z,0.70
2023-04-19T03:27:09.991Z,0.50
2023-04-19T03:29:36.377Z,0.50
2023-04-19T03:32:02.841Z,0.50
2023-04-19T03:34:29.213Z,0.50
2023-04-19T03:36:55.900Z,0.50
2023-04-19T03:39:22.315Z,0.30
2023-04-19T03:41:48.752Z,0.32
2023-04-19T03:44:15.445Z,0.57
2023-04-19T03:46:42.135Z,0.47
2023-04-19T03:49:08.637Z,0.47
2023-04-19T03:51:35.123Z,0.33
2023-04-19T03:54:01.608Z,0.40
2023-04-19T03:56:28.017Z,0.52
2023-04-19T03:58:54.421Z,0.45
2023-04-19T04:01:21.309Z,0.28
2023-04-19T04:03:48.322Z,0.30
2023-04-19T04:06:15.011Z,0.40
2023-04-19T04:08:41.417Z,0.30
2023-04-19T04:11:07.830Z,0.38
2023-04-19T04:13:34.245Z,0.40
2023-04-19T04:16:00.757Z,0.30
2023-04-19T04:18:28.582Z,0.30
2023-04-19T04:20:55.535Z,0.43
2023-04-19T04:23:21.986Z,0.40
2023-04-19T04:25:55.781Z,0.35
2023-04-19T04:28:22.927Z,2.03
2023-04-19T04:30:49.401Z,5.63
2023-04-19T04:33:17.168Z,11.93
2023-04-19T04:35:43.560Z,11.30
2023-04-19T04:38:21.526Z,11.57
2023-04-19T04:40:53.703Z,9.80
2023-04-19T04:43:22.812Z,11.77
2023-04-19T04:45:49.625Z,15.32
2023-04-19T04:48:16.229Z,16.50
2023-04-19T04:50:42.692Z,15.55
2023-04-19T04:53:10.541Z,14.53
2023-04-19T04:55:38.785Z,14.00
2023-04-19T04:58:06.092Z,12.93
2023-04-19T05:00:33.035Z,12.30
2023-04-19T05:02:59.658Z,10.32
2023-04-19T05:05:26.253Z,10.77
2023-04-19T05:07:52.664Z,10.75
2023-04-19T05:10:19.034Z,8.18
2023-04-19T05:12:45.535Z,7.65
2023-04-19T05:15:12.950Z,7.05
2023-04-19T05:17:39.344Z,8.97
2023-04-19T05:20:06.107Z,11.68
2023-04-19T05:22:32.542Z,11.93
2023-04-19T05:24:58.909Z,13.63
2023-04-19T05:27:25.787Z,16.10
2023-04-19T05:29:52.300Z,17.27
2023-04-19T05:32:18.752Z,18.67
2023-04-19T05:34:46.179Z,18.95
2023-04-19T05:37:12.644Z,23.92
2023-04-19T05:39:39.049Z,22.88
2023-04-19T05:42:06.139Z,23.27
2023-04-19T05:44:32.922Z,23.27
2023-04-19T05:47:00.726Z,22.27
2023-04-19T05:49:27.242Z,15.45
2023-04-19T05:51:55.583Z,2.60
2023-04-19T05:54:22.018Z,7.00
2023-04-19T05:56:48.419Z,15.52
2023-04-19T05:59:15.372Z,15.65
2023-04-19T06:01:41.889Z,13.18
2023-04-19T06:04:08.461Z,10.95
2023-04-19T06:06:34.957Z,10.07
2023-04-19T06:09:01.417Z,6.32
2023-04-19T06:11:35.115Z,4.15
2023-04-19T06:14:06.007Z,9.05
2023-04-19T06:16:32.493Z,8.43
2023-04-19T06:18:58.955Z,7.93
2023-04-19T06:21:25.404Z,6.90
2023-04-19T06:23:51.828Z,6.75
2023-04-19T06:26:18.237Z,6.20
2023-04-19T06:28:44.659Z,6.03
2023-04-19T06:31:12.222Z,6.13
2023-04-19T06:33:38.818Z,5.63
2023-04-19T06:36:05.481Z,4.22
2023-04-19T06:38:31.882Z,3.50
2023-04-19T06:40:58.290Z,2.63
2023-04-19T06:43:24.812Z,3.57
2023-04-19T06:45:57.981Z,3.65
2023-04-19T06:48:24.448Z,2.90
2023-04-19T06:50:50.903Z,1.77
2023-04-19T06:53:17.349Z,1.80
2023-04-19T06:55:44.532Z,2.10
2023-04-19T06:58:11.005Z,1.63
2023-04-19T07:00:37.538Z,1.98
2023-04-19T07:03:04.393Z,1.80
2023-04-19T07:05:31.356Z,1.45
2023-04-19T07:07:58.024Z,1.40
2023-04-19T07:10:24.533Z,1.25
2023-04-19T07:12:51.091Z,1.88
2023-04-19T07:15:17.536Z,1.38
2023-04-19T07:17:44.019Z,1.15
2023-04-19T07:20:11.152Z,1.27
2023-04-19T07:22:37.587Z,1.08
2023-04-19T07:25:04.364Z,1.02
2023-04-19T07:27:30.771Z,0.88
2023-04-19T07:29:57.200Z,0.90
2023-04-19T07:32:23.697Z,0.67
2023-04-19T07:34:51.760Z,1.10
2023-04-19T07:37:18.344Z,0.88
2023-04-19T07:39:44.731Z,0.70
2023-04-19T07:42:11.204Z,0.75
2023-04-19T07:44:37.702Z,0.77
2023-04-19T07:47:05.807Z,0.70
2023-04-19T07:49:34.278Z,0.90
2023-04-19T07:52:02.016Z,0.68
2023-04-19T07:54:28.930Z,0.90
2023-04-19T07:56:55.316Z,0.90
2023-04-19T07:59:22.040Z,0.93
2023-04-19T08:01:49.214Z,1.13
2023-04-19T08:04:17.456Z,1.02
2023-04-19T08:06:44.411Z,1.13
2023-04-19T08:09:11.272Z,1.77
2023-04-19T08:11:37.701Z,1.85
2023-04-19T08:14:27.110Z,1.88
2023-04-19T08:19:20.033Z,1.20
2023-04-19T08:21:46.583Z,1.40
2023-04-19T08:24:12.968Z,1.50
2023-04-19T08:26:39.333Z,1.40
2023-04-19T08:29:05.767Z,1.45
2023-04-19T08:31:32.475Z,1.38
2023-04-19T08:34:00.218Z,1.50
2023-04-19T08:36:37.520Z,1.67
2023-04-19T08:39:14.813Z,1.38
2023-04-19T08:42:02.970Z,1.20
2023-04-19T08:44:36.411Z,1.70
2023-04-19T08:47:04.543Z,1.50
2023-04-19T08:49:31.745Z,1.15
2023-04-19T08:51:58.150Z,1.20
2023-04-19T08:54:24.748Z,1.80
2023-04-19T08:56:52.699Z,2.13
2023-04-19T08:59:19.111Z,1.83
2023-04-19T09:01:46.273Z,1.80
2023-04-19T09:06:42.464Z,1.80
2023-04-19T09:11:47.191Z,1.70
2023-04-19T09:14:15.551Z,2.30
2023-04-19T09:16:42.417Z,2.30
2023-04-19T09:19:23.270Z,2.95
2023-04-19T09:21:54.787Z,2.95
2023-04-19T09:25:02.571Z,3.20
2023-04-19T09:27:29.553Z,3.10
2023-04-19T09:29:57.155Z,3.10
2023-04-19T09:32:23.964Z,3.35
2023-04-19T09:34:51.704Z,3.92
2023-04-19T09:37:38.474Z,2.77
2023-04-19T09:40:13.612Z,3.88
2023-04-19T09:48:00.202Z,2.40
2023-04-19T09:50:27.658Z,3.80
2023-04-19T09:52:55.546Z,3.20
2023-04-19T09:55:27.675Z,4.00
2023-04-19T09:57:55.414Z,4.00
2023-04-19T10:00:22.626Z,3.97
2023-04-19T10:02:55.729Z,3.73
2023-04-19T10:05:22.969Z,3.47
2023-04-19T10:07:49.757Z,4.18
2023-04-19T10:10:23.959Z,4.53
2023-04-19T10:15:24.158Z,4.70
2023-04-19T10:17:50.907Z,4.25
2023-04-19T10:20:27.031Z,4.50
2023-04-19T10:22:53.928Z,4.15
2023-04-19T10:25:27.844Z,4.13
2023-04-19T10:27:54.247Z,3.13
2023-04-19T10:30:21.769Z,4.13
2023-04-19T10:32:56.704Z,4.85
2023-04-19T10:35:29.469Z,3.75
2023-04-19T10:38:04.558Z,3.67
2023-04-19T10:40:39.986Z,3.07
2023-04-19T10:43:15.227Z,3.60
2023-04-19T10:45:42.419Z,4.20
2023-04-19T10:48:30.841Z,3.72
2023-04-19T10:50:57.848Z,4.25
2023-04-19T10:53:33.207Z,4.67
2023-04-19T10:55:59.586Z,4.30
2023-04-19T10:58:26.085Z,3.25
2023-04-19T11:01:12.473Z,4.18
2023-04-19T11:03:52.832Z,3.80
2023-04-19T11:06:21.343Z,4.10
2023-04-19T11:08:47.805Z,4.45
2023-04-19T11:11:15.482Z,4.13
2023-04-19T11:13:43.108Z,3.83
2023-04-19T11:16:09.891Z,4.10
2023-04-19T11:18:36.475Z,3.03
2023-04-19T11:21:03.103Z,3.75
2023-04-19T11:23:29.481Z,4.22
2023-04-19T11:25:56.055Z,3.78
2023-04-19T11:28:22.492Z,4.22
2023-04-19T11:30:49.401Z,4.50
2023-04-19T11:33:15.999Z,4.10
2023-04-19T11:35:43.476Z,4.43
2023-04-19T11:38:12.829Z,4.10
2023-04-19T11:40:39.340Z,3.88
2023-04-19T11:43:05.720Z,3.10
2023-04-19T11:45:35.399Z,4.72
2023-04-19T11:48:05.600Z,5.60
2023-04-19T11:50:40.439Z,4.25
2023-04-19T11:53:11.508Z,3.33
2023-04-19T11:55:37.954Z,4.30
2023-04-19T11:58:09.581Z,1.60
2023-04-19T12:00:36.314Z,3.95
2023-04-19T12:03:03.715Z,4.68
2023-04-19T12:05:30.579Z,5.60
2023-04-19T12:07:57.913Z,3.67
2023-04-19T12:10:24.420Z,4.18
2023-04-19T12:12:51.047Z,3.38
2023-04-19T12:15:17.434Z,3.90
2023-04-19T12:17:57.209Z,4.45
2023-04-19T12:20:31.835Z,4.50
2023-04-19T12:22:58.387Z,4.22
2023-04-19T12:25:28.490Z,4.18
2023-04-19T12:27:55.078Z,3.92
2023-04-19T12:30:21.513Z,2.83
2023-04-19T12:32:47.949Z,4.60
2023-04-19T12:35:14.442Z,3.50
2023-04-19T12:37:40.838Z,4.32
2023-04-19T12:40:07.564Z,4.40
2023-04-19T12:42:34.013Z,3.22
2023-04-19T12:45:01.141Z,3.40
2023-04-19T12:47:28.315Z,3.55
2023-04-19T12:49:57.577Z,4.90
2023-04-19T12:52:24.002Z,4.00
2023-04-19T12:54:50.671Z,4.20
2023-04-19T12:57:17.053Z,4.80
2023-04-19T12:59:43.443Z,3.45
2023-04-19T13:02:09.869Z,4.10
2023-04-19T13:04:36.598Z,3.40
2023-04-19T13:07:03.186Z,3.72
2023-04-19T13:09:29.616Z,3.17
2023-04-19T13:11:56.444Z,3.60
2023-04-19T13:14:22.873Z,3.88
2023-04-19T13:16:49.281Z,3.40
2023-04-19T13:19:15.881Z,3.33
2023-04-19T13:21:42.288Z,2.67
2023-04-19T13:24:08.754Z,2.50
2023-04-19T13:26:35.636Z,2.08
2023-04-19T13:29:02.257Z,3.58
2023-04-19T13:31:28.775Z,3.78
2023-04-19T13:33:55.434Z,4.13
2023-04-19T13:36:21.933Z,2.25
2023-04-19T13:38:48.697Z,4.05
2023-04-19T13:41:15.153Z,2.75
2023-04-19T13:43:41.604Z,3.08
2023-04-19T13:46:08.111Z,3.80
2023-04-19T13:48:34.627Z,4.50
2023-04-19T13:51:01.051Z,2.78
2023-04-19T13:53:28.976Z,2.97
2023-04-19T13:55:55.944Z,3.83
2023-04-19T13:58:24.570Z,3.17
2023-04-19T14:00:51.484Z,3.90
2023-04-19T14:03:17.956Z,3.40
2023-04-19T14:05:44.416Z,3.53
2023-04-19T14:08:11.009Z,3.63
2023-04-19T14:10:38.090Z,4.37
2023-04-19T14:13:05.268Z,3.83
2023-04-19T14:15:31.647Z,3.25
2023-04-19T14:17:58.293Z,2.90
2023-04-19T14:20:24.676Z,3.40
2023-04-19T14:22:51.268Z,2.57
2023-04-19T14:25:18.690Z,4.28
2023-04-19T14:27:45.261Z,3.25
2023-04-19T14:30:11.765Z,3.30
2023-04-19T14:32:38.411Z,3.63
2023-04-19T14:35:05.127Z,2.90
2023-04-19T14:37:31.688Z,3.00
2023-04-19T14:39:58.074Z,2.97
2023-04-19T14:42:24.642Z,2.10
2023-04-19T14:44:52.075Z,2.88
2023-04-19T14:47:18.606Z,4.40
2023-04-19T14:49:44.992Z,2.75
2023-04-19T14:52:11.563Z,3.40
2023-04-19T14:54:37.992Z,3.28
2023-04-19T14:57:04.416Z,3.13
2023-04-19T14:59:30.905Z,2.87
2023-04-19T15:01:57.412Z,2.65
2023-04-19T15:04:24.117Z,2.75
2023-04-19T15:06:50.721Z,2.50
2023-04-19T15:09:17.344Z,3.00
2023-04-19T15:11:44.416Z,2.50
2023-04-19T15:14:10.858Z,3.63
2023-04-19T15:16:37.740Z,2.22
2023-04-19T15:19:07.288Z,3.30
2023-04-19T15:21:34.103Z,2.90
2023-04-19T15:24:01.266Z,2.73
2023-04-19T15:26:27.800Z,2.92
2023-04-19T15:28:54.497Z,2.45
2023-04-19T15:31:21.274Z,2.38
2023-04-19T15:33:47.791Z,2.47
2023-04-19T15:36:14.204Z,1.73
2023-04-19T15:38:42.648Z,1.65
2023-04-19T15:41:11.052Z,3.10
2023-04-19T15:43:37.458Z,2.55
2023-04-19T15:46:04.000Z,2.65
2023-04-19T15:48:30.659Z,2.47
2023-04-19T15:50:57.061Z,2.80
2023-04-19T15:53:23.615Z,2.13
2023-04-19T15:55:50.102Z,2.08
2023-04-19T15:58:16.588Z,2.40
2023-04-19T16:00:43.164Z,2.67
2023-04-19T16:03:12.423Z,3.30
2023-04-19T16:05:39.090Z,2.42
2023-04-19T16:08:06.347Z,2.65
2023-04-19T16:10:32.947Z,2.67
2023-04-19T16:12:59.804Z,2.70
2023-04-19T16:15:26.405Z,2.45
2023-04-19T16:17:52.878Z,3.70
2023-04-19T16:20:20.405Z,3.78
2023-04-19T16:22:47.141Z,3.83
2023-04-19T16:25:14.238Z,3.67
2023-04-19T16:27:41.448Z,3.63
2023-04-19T16:30:08.078Z,3.13
2023-04-19T16:32:34.745Z,4.35
2023-04-19T16:35:01.228Z,3.45
2023-04-19T16:37:27.804Z,3.67
2023-04-19T16:39:54.292Z,3.53
2023-04-19T16:42:20.798Z,2.95
2023-04-19T16:44:47.176Z,3.97
2023-04-19T16:47:13.595Z,3.67
2023-04-19T16:49:40.033Z,3.97
2023-04-19T16:52:06.459Z,3.95
2023-04-19T16:54:32.851Z,4.18
2023-04-19T16:56:59.221Z,3.92
2023-04-19T16:59:25.642Z,3.42
2023-04-19T17:01:55.716Z,3.37
2023-04-19T17:04:25.069Z,2.58
2023-04-19T17:06:51.997Z,2.92
2023-04-19T17:09:18.693Z,2.90
2023-04-19T17:11:45.309Z,2.22
2023-04-19T17:14:11.705Z,2.07
2023-04-19T17:16:38.688Z,3.25
2023-04-19T17:19:05.096Z,2.88
2023-04-19T17:21:31.618Z,2.42
2023-04-19T17:23:57.972Z,2.90
2023-04-19T17:26:24.660Z,2.67
2023-04-19T17:28:51.063Z,2.63
2023-04-19T17:31:17.521Z,2.05
2023-04-19T17:33:43.926Z,2.13
2023-04-19T17:36:10.375Z,2.30
2023-04-19T17:38:38.742Z,2.80
2023-04-19T17:41:05.800Z,2.53
2023-04-19T17:43:32.249Z,2.85
2023-04-19T17:45:59.590Z,2.83
2023-04-19T17:48:26.019Z,2.72
2023-04-19T17:50:52.494Z,2.87
2023-04-19T17:53:18.934Z,3.00
2023-04-19T17:55:46.193Z,2.50
2023-04-19T17:58:12.586Z,2.58
2023-04-19T18:00:39.041Z,2.33
2023-04-19T18:03:05.579Z,2.10
2023-04-19T18:05:32.146Z,2.63
2023-04-19T18:07:58.550Z,2.40
2023-04-19T18:10:24.986Z,2.55
2023-04-19T18:12:51.393Z,2.70
2023-04-19T18:15:17.812Z,2.27
2023-04-19T18:17:44.247Z,3.13
2023-04-19T18:20:13.124Z,2.45
2023-04-19T18:22:40.132Z,3.10
2023-04-19T18:25:06.657Z,2.60
2023-04-19T18:27:33.027Z,2.50
2023-04-19T18:29:59.439Z,2.88
2023-04-19T18:32:28.663Z,2.72
2023-04-19T18:34:55.170Z,2.97
2023-04-19T18:37:21.573Z,2.40
2023-04-19T18:39:47.948Z,2.23
2023-04-19T18:42:14.411Z,1.77
2023-04-19T18:47:10.284Z,2.17
2023-04-19T18:49:36.684Z,3.08
2023-04-19T18:52:03.106Z,2.20
2023-04-19T18:54:29.537Z,1.73
2023-04-19T18:57:21.930Z,2.38
2023-04-19T18:59:42.406Z,2.55
2023-04-19T19:02:08.903Z,2.17
2023-04-19T19:07:18.078Z,2.13
2023-04-19T19:09:56.228Z,2.17
2023-04-19T19:12:23.296Z,14.30
2023-04-19T19:14:49.863Z,16.38
2023-04-19T19:17:16.287Z,5.47
2023-04-19T19:19:42.727Z,2.28
2023-04-19T19:22:22.473Z,2.33
2023-04-19T19:24:54.078Z,2.67
2023-04-19T19:27:20.587Z,2.53
2023-04-19T19:29:47.158Z,3.43
2023-04-19T19:32:14.190Z,3.90
2023-04-19T19:34:53.777Z,2.45
2023-04-19T19:37:22.523Z,2.88
2023-04-19T19:39:49.139Z,4.15
2023-04-19T19:42:16.640Z,4.43
2023-04-19T19:44:43.454Z,3.47
2023-04-19T19:47:11.117Z,3.20
2023-04-19T19:52:07.721Z,3.30
2023-04-19T19:54:34.200Z,2.77
2023-04-19T19:57:56.653Z,3.42
2023-04-19T19:59:52.633Z,4.60
2023-04-19T20:02:22.751Z,3.28
2023-04-19T20:04:49.518Z,4.18
2023-04-19T20:09:45.719Z,10.05
2023-04-19T20:12:13.731Z,9.13
2023-04-19T20:14:40.721Z,4.53
2023-04-19T20:17:07.501Z,5.20
2023-04-19T20:19:34.088Z,5.40
2023-04-19T20:22:00.608Z,5.07
2023-04-19T20:24:27.159Z,7.43
2023-04-19T20:26:54.673Z,4.95
2023-04-19T20:29:21.025Z,3.47
2023-04-19T20:31:49.497Z,3.20
2023-04-19T20:34:16.929Z,4.03
2023-04-19T20:36:46.668Z,3.70
2023-04-19T20:39:13.363Z,3.97
2023-04-19T20:41:39.777Z,5.15
2023-04-19T20:44:06.392Z,4.93
2023-04-19T20:46:35.995Z,3.05
2023-04-19T20:49:02.399Z,3.33
2023-04-19T20:51:28.792Z,4.15
2023-04-19T20:53:55.513Z,3.88
2023-04-19T20:56:22.942Z,3.90
2023-04-19T20:58:49.322Z,3.22
2023-04-19T21:01:17.571Z,4.03
2023-04-19T21:03:44.786Z,5.88
2023-04-19T21:06:11.643Z,9.95
2023-04-19T21:08:38.063Z,7.63
2023-04-19T21:11:04.461Z,6.90
2023-04-19T21:13:31.296Z,7.95
2023-04-19T21:15:57.828Z,7.78
2023-04-19T21:18:25.534Z,7.05
2023-04-19T21:20:51.881Z,4.33
2023-04-19T21:23:18.417Z,3.80
2023-04-19T21:25:44.923Z,4.72
2023-04-19T21:28:11.454Z,4.72
2023-04-19T21:30:40.803Z,5.95
2023-04-19T21:33:07.313Z,5.60
2023-04-19T21:35:33.982Z,5.32
2023-04-19T21:38:00.499Z,4.18
2023-04-19T21:40:27.151Z,3.50
2023-04-19T21:42:53.674Z,4.30
2023-04-19T21:45:20.615Z,5.20
2023-04-19T21:47:47.098Z,4.68
2023-04-19T21:50:13.567Z,3.47
2023-04-19T21:52:40.004Z,3.80
2023-04-19T21:55:06.744Z,3.65
2023-04-19T21:57:33.155Z,3.53
2023-04-19T21:59:59.616Z,5.32
2023-04-19T22:02:26.277Z,9.43
2023-04-19T22:04:53.878Z,8.40
2023-04-19T22:07:20.775Z,8.75
2023-04-19T22:09:47.666Z,9.57
2023-04-19T22:12:14.336Z,7.45
2023-04-19T22:14:40.858Z,6.10
2023-04-19T22:17:07.340Z,6.78
2023-04-19T22:19:33.762Z,5.97
2023-04-19T22:22:00.280Z,6.57
2023-04-19T22:24:26.658Z,6.47
2023-04-19T22:26:53.357Z,5.60
2023-04-19T22:29:20.005Z,5.07
2023-04-19T22:31:46.516Z,5.38
2023-04-19T22:34:12.950Z,5.67
2023-04-19T22:36:39.380Z,4.90
2023-04-19T22:39:05.881Z,4.40
2023-04-19T22:41:32.957Z,3.78
2023-04-19T22:44:00.201Z,3.63
2023-04-19T22:46:26.947Z,3.67
2023-04-19T22:48:53.581Z,3.65
2023-04-19T22:51:20.155Z,4.13
2023-04-19T22:53:46.613Z,3.63
2023-04-19T22:56:13.129Z,3.83
2023-04-19T22:58:39.553Z,3.20
2023-04-19T23:01:06.006Z,3.40
2023-04-19T23:03:32.968Z,3.45
2023-04-19T23:05:59.361Z,3.60
2023-04-19T23:08:26.171Z,3.00
2023-04-19T23:10:53.711Z,2.97
2023-04-19T23:13:20.112Z,2.90
2023-04-19T23:15:47.948Z,3.25
2023-04-19T23:18:14.423Z,3.33
2023-04-19T23:20:41.510Z,3.25
2023-04-19T23:23:07.936Z,2.67
2023-04-19T23:25:34.427Z,2.97
2023-04-19T23:28:00.847Z,3.50
2023-04-19T23:30:27.238Z,3.63
2023-04-19T23:32:53.660Z,3.35
2023-04-19T23:35:20.073Z,3.43
2023-04-19T23:37:46.446Z,2.72
2023-04-19T23:40:12.884Z,3.40
2023-04-19T23:42:39.382Z,2.85
2023-04-19T23:45:06.192Z,2.58
2023-04-19T23:47:33.260Z,2.07
2023-04-19T23:49:59.980Z,2.33
2023-04-19T23:52:27.491Z,2.92
2023-04-19T23:54:53.860Z,2.72
2023-04-19T23:57:20.407Z,2.55
2023-04-19T23:59:46.898Z,2.10
